Time;durP1;ratioP1;P1;durP2;ratioP2;P2;SDS_P1;SDS_P2;PMS_P1;PMS_P2;Temp;Humidity;BMP_temperature;BMP_pressure;BME280_temperature;BME280_humidity;BME280_pressure;Samples;Min_cycle;Max_cycle;Signal;HPM_P1;HPM_P2
2022/11/21 05:00:36;;;;;;;;;;;20.40;99.90;;;;;;5920343;23;19932;-76
2022/11/21 05:03:05;;;;;;;;;;;20.40;99.90;;;;;;4977629;28;19926;-76
2022/11/21 05:05:31;;;;;;;;;;;20.40;99.90;;;;;;4977675;28;19933;-77
2022/11/21 05:07:58;;;;;;;;;;;20.40;99.90;;;;;;4982653;28;19933;-78
2022/11/21 05:10:24;;;;;;;;;;;20.40;99.90;;;;;;4980725;28;19926;-78
2022/11/21 05:15:40;;;;;;;;;;;20.40;99.90;;;;;;4979620;28;19973;-78
2022/11/21 05:18:08;;;;;;;;;;;20.40;99.90;;;;;;4978735;28;19930;-78
2022/11/21 05:20:35;;;;;;;;;;;20.30;99.90;;;;;;4977618;28;19977;-78
2022/11/21 05:23:02;;;;;;;;;;;20.40;99.90;;;;;;4978126;28;19933;-78
2022/11/21 05:25:28;;;;;;;;;;;20.40;99.90;;;;;;4978051;28;20297;-78
2022/11/21 05:27:55;;;;;;;;;;;20.30;99.90;;;;;;4978069;28;19926;-78
2022/11/21 05:30:22;;;;;;;;;;;20.30;99.90;;;;;;4981121;28;19926;-79
2022/11/21 05:32:48;;;;;;;;;;;20.30;99.90;;;;;;4982814;28;19969;-79
2022/11/21 05:35:16;;;;;;;;;;;20.30;99.90;;;;;;4983150;28;20385;-79
2022/11/21 05:37:43;;;;;;;;;;;20.30;99.90;;;;;;4985663;28;19926;-81
2022/11/21 05:40:10;;;;;;;;;;;20.30;99.90;;;;;;4985882;28;19926;-81
2022/11/21 05:45:22;;;;;;;;;;;20.20;99.90;;;;;;4993680;28;19988;-81
2022/11/21 05:47:49;;;;;;;;;;;20.20;99.90;;;;;;4983288;28;19934;-80
2022/11/21 05:50:17;;;;;;;;;;;20.20;99.90;;;;;;4978170;28;19926;-79
2022/11/21 05:52:43;;;;;;;;;;;20.30;99.90;;;;;;4978352;28;19934;-80
2022/11/21 05:55:10;;;;;;;;;;;20.30;99.90;;;;;;4977923;28;19926;-80
2022/11/21 05:57:37;;;;;;;;;;;20.20;99.90;;;;;;4978727;28;20050;-80
2022/11/21 06:00:04;;;;;;;;;;;20.20;99.90;;;;;;4978301;28;19926;-80
2022/11/21 06:05:15;;;;;;;;;;;20.30;99.90;;;;;;4979792;28;20077;-82
2022/11/21 06:07:42;;;;;;;;;;;20.20;99.90;;;;;;4978922;28;19934;-82
2022/11/21 06:10:09;;;;;;;;;;;20.20;99.90;;;;;;4979122;28;19926;-80
2022/11/21 06:12:36;;;;;;;;;;;20.10;99.90;;;;;;4981863;28;19926;-81
2022/11/21 06:15:02;;;;;;;;;;;20.10;99.90;;;;;;4981007;28;19926;-80
2022/11/21 06:17:29;;;;;;;;;;;20.00;99.90;;;;;;4979165;28;20370;-80
2022/11/21 06:19:56;;;;;;;;;;;20.00;99.90;;;;;;4979429;28;19926;-80
2022/11/21 06:22:22;;;;;;;;;;;20.00;99.90;;;;;;4980000;28;19926;-79
2022/11/21 06:24:50;;;;;;;;;;;20.00;99.90;;;;;;4979517;28;19926;-79
2022/11/21 06:27:17;;;;;;;;;;;20.00;99.90;;;;;;4978934;28;19934;-79
2022/11/21 06:29:43;;;;;;;;;;;20.00;99.90;;;;;;4978604;28;20397;-79
2022/11/21 06:32:10;;;;;;;;;;;20.00;99.90;;;;;;4979051;28;19926;-79
2022/11/21 06:34:36;;;;;;;;;;;20.00;99.90;;;;;;4978684;28;19941;-79
2022/11/21 06:37:03;;;;;;;;;;;20.00;99.90;;;;;;4978992;28;19926;-79
2022/11/21 06:39:30;;;;;;;;;;;20.00;99.90;;;;;;4978803;28;19926;-79
2022/11/21 06:41:57;;;;;;;;;;;20.00;99.90;;;;;;4979563;28;19926;-79
2022/11/21 06:44:24;;;;;;;;;;;20.00;99.90;;;;;;4979024;28;19933;-79
2022/11/21 06:46:51;;;;;;;;;;;20.00;99.90;;;;;;4979072;28;19926;-79
2022/11/21 06:49:17;;;;;;;;;;;20.00;99.90;;;;;;4978371;28;19937;-79
2022/11/21 06:51:44;;;;;;;;;;;20.00;99.90;;;;;;4978232;28;19933;-79
2022/11/21 06:54:10;;;;;;;;;;;20.00;99.70;;;;;;4977951;28;19934;-79
2022/11/21 06:56:37;;;;;;;;;;;20.00;99.50;;;;;;4978089;28;20389;-79
2022/11/21 06:59:05;;;;;;;;;;;20.00;99.30;;;;;;4978885;28;20287;-79
2022/11/21 07:01:31;;;;;;;;;;;20.00;99.10;;;;;;4978000;28;19927;-79
2022/11/21 07:03:58;;;;;;;;;;;20.00;98.90;;;;;;4977432;28;19930;-79
2022/11/21 07:06:26;;;;;;;;;;;20.00;98.70;;;;;;4978610;28;19926;-79
2022/11/21 07:08:53;;;;;;;;;;;20.00;98.60;;;;;;4978055;28;19990;-79
2022/11/21 07:11:20;;;;;;;;;;;20.00;98.40;;;;;;4977957;28;19953;-79
2022/11/21 07:13:45;;;;;;;;;;;20.00;98.20;;;;;;4977707;28;19930;-79
2022/11/21 07:16:14;;;;;;;;;;;20.00;98.00;;;;;;4977454;28;19929;-79
2022/11/21 07:18:41;;;;;;;;;;;20.00;97.80;;;;;;4977297;28;19929;-79
2022/11/21 07:21:08;;;;;;;;;;;20.00;97.70;;;;;;4978036;28;19980;-79
2022/11/21 07:23:35;;;;;;;;;;;20.10;97.80;;;;;;4977763;28;19926;-79
2022/11/21 07:26:01;;;;;;;;;;;20.10;97.60;;;;;;4977922;28;19926;-79
2022/11/21 07:28:28;;;;;;;;;;;20.00;97.40;;;;;;4977657;28;19937;-79
2022/11/21 07:30:55;;;;;;;;;;;20.00;97.20;;;;;;4978282;28;19981;-79
2022/11/21 07:33:23;;;;;;;;;;;20.10;97.10;;;;;;4978129;28;19926;-79
2022/11/21 07:35:50;;;;;;;;;;;20.00;96.90;;;;;;4978021;28;19926;-79
2022/11/21 07:38:16;;;;;;;;;;;20.10;96.80;;;;;;4977692;28;19926;-79
2022/11/21 07:40:43;;;;;;;;;;;20.10;96.70;;;;;;4977463;28;19926;-79
2022/11/21 07:43:10;;;;;;;;;;;20.00;96.50;;;;;;4977406;28;19927;-79
2022/11/21 07:45:37;;;;;;;;;;;20.00;96.40;;;;;;4976460;28;19930;-79
2022/11/21 07:48:05;;;;;;;;;;;20.10;96.30;;;;;;4977548;28;19926;-79
2022/11/21 07:50:33;;;;;;;;;;;20.00;96.10;;;;;;4977072;28;19926;-79
2022/11/21 07:53:00;;;;;;;;;;;20.00;96.00;;;;;;4976480;28;19926;-81
2022/11/21 07:55:28;;;;;;;;;;;20.00;95.90;;;;;;4977602;28;19926;-81
2022/11/21 07:57:58;;;;;;;;;;;20.10;95.70;;;;;;4978786;28;19941;-80
2022/11/21 08:00:25;;;;;;;;;;;20.10;95.30;;;;;;4978872;28;19977;-80
2022/11/21 08:02:52;;;;;;;;;;;20.00;94.90;;;;;;4976748;28;19926;-78
2022/11/21 08:05:18;;;;;;;;;;;19.90;94.60;;;;;;4975367;28;20401;-78
2022/11/21 08:07:46;;;;;;;;;;;19.90;94.30;;;;;;4975304;28;19942;-78
2022/11/21 08:10:13;;;;;;;;;;;19.80;94.10;;;;;;4975623;28;20275;-78
2022/11/21 08:12:40;;;;;;;;;;;19.80;93.80;;;;;;4975351;28;19926;-78
2022/11/21 08:15:07;;;;;;;;;;;19.80;93.60;;;;;;4978020;28;19933;-78
2022/11/21 08:17:34;;;;;;;;;;;19.80;93.40;;;;;;4978850;28;19926;-78
2022/11/21 08:20:01;;;;;;;;;;;19.80;93.20;;;;;;4979004;28;19934;-78
2022/11/21 08:22:28;;;;;;;;;;;19.80;92.90;;;;;;4978961;28;19950;-78
2022/11/21 08:24:55;;;;;;;;;;;19.80;92.70;;;;;;4978833;28;20374;-78
2022/11/21 08:27:23;;;;;;;;;;;19.80;92.70;;;;;;4979325;28;19932;-78
2022/11/21 08:29:49;;;;;;;;;;;19.80;92.50;;;;;;4979220;28;19938;-78
2022/11/21 08:32:16;;;;;;;;;;;19.80;92.30;;;;;;4978900;28;20286;-78
2022/11/21 08:34:43;;;;;;;;;;;19.80;92.10;;;;;;4978567;28;19935;-78
2022/11/21 08:37:09;;;;;;;;;;;19.80;92.00;;;;;;4978614;28;19930;-78
2022/11/21 08:39:36;;;;;;;;;;;19.80;91.80;;;;;;4978564;28;19926;-78
2022/11/21 08:42:04;;;;;;;;;;;19.80;91.60;;;;;;4978492;28;19941;-78
2022/11/21 08:44:31;;;;;;;;;;;19.80;91.50;;;;;;4978221;28;19926;-78
2022/11/21 08:46:57;;;;;;;;;;;19.80;91.40;;;;;;4977981;28;20293;-78
2022/11/21 08:49:24;;;;;;;;;;;19.80;91.60;;;;;;4978191;28;20378;-78
2022/11/21 08:51:51;;;;;;;;;;;19.80;91.20;;;;;;4978057;28;19950;-78
2022/11/21 08:54:18;;;;;;;;;;;19.80;91.10;;;;;;4977764;28;20386;-78
2022/11/21 08:56:45;;;;;;;;;;;19.80;90.90;;;;;;4977955;28;19926;-78
2022/11/21 08:59:13;;;;;;;;;;;19.80;90.80;;;;;;4978055;28;19933;-78
2022/11/21 09:01:39;;;;;;;;;;;19.80;90.70;;;;;;4977761;28;19937;-78
2022/11/21 09:04:06;;;;;;;;;;;19.80;90.60;;;;;;4977604;28;19926;-78
2022/11/21 09:06:33;;;;;;;;;;;19.80;90.50;;;;;;4977667;28;19926;-78
2022/11/21 09:08:59;;;;;;;;;;;19.80;90.40;;;;;;4977422;28;19930;-78
2022/11/21 09:11:26;;;;;;;;;;;19.80;90.30;;;;;;4977276;28;20309;-78
2022/11/21 09:19:19;;;;;;;;;;;19.80;90.20;;;;;;4977548;28;20397;-78
2022/11/21 09:21:46;;;;;;;;;;;19.80;90.20;;;;;;4977531;28;19926;-78
2022/11/21 09:24:13;;;;;;;;;;;19.80;90.20;;;;;;4977358;28;19926;-78
2022/11/21 09:26:39;;;;;;;;;;;19.80;90.10;;;;;;4976826;28;19930;-78
2022/11/21 09:29:06;;;;;;;;;;;19.80;90.00;;;;;;4977101;28;19942;-78
2022/11/21 09:31:32;;;;;;;;;;;19.80;90.00;;;;;;4977098;28;19926;-78
2022/11/21 09:34:00;;;;;;;;;;;19.80;90.20;;;;;;4977323;28;19937;-78
2022/11/21 09:36:27;;;;;;;;;;;19.80;89.70;;;;;;4977238;28;19933;-77
2022/11/21 09:38:53;;;;;;;;;;;19.80;89.60;;;;;;4977298;28;19927;-77
2022/11/21 09:44:15;;;;;;;;;;;19.80;89.40;;;;;;4977665;28;19933;-77
2022/11/21 09:46:44;;;;;;;;;;;19.80;89.30;;;;;;4977044;28;19926;-77
2022/11/21 09:49:13;;;;;;;;;;;19.80;89.20;;;;;;4976977;28;19933;-77
2022/11/21 09:51:41;;;;;;;;;;;19.80;89.10;;;;;;4976895;28;19930;-77
2022/11/21 09:54:13;;;;;;;;;;;19.80;89.00;;;;;;4976877;28;19933;-77
2022/11/21 09:56:41;;;;;;;;;;;19.80;88.90;;;;;;4976791;28;19930;-77
2022/11/21 09:59:12;;;;;;;;;;;19.80;88.90;;;;;;4976750;28;19933;-77
2022/11/21 10:01:39;;;;;;;;;;;19.80;88.70;;;;;;4976631;28;20271;-77
2022/11/21 10:04:05;;;;;;;;;;;19.80;88.60;;;;;;4976299;28;19926;-77
2022/11/21 10:06:36;;;;;;;;;;;19.80;88.60;;;;;;4976580;28;19926;-77
2022/11/21 10:09:07;;;;;;;;;;;19.80;89.20;;;;;;4976701;28;19941;-77
2022/11/21 10:12:35;;;;;;;;;;;19.80;88.50;;;;;;4976445;28;19926;-77
2022/11/21 10:14:34;;;;;;;;;;;19.80;88.40;;;;;;4976026;28;19933;-77
2022/11/21 10:17:07;;;;;;;;;;;19.80;88.30;;;;;;4976403;28;19930;-77
2022/11/21 10:19:50;;;;;;;;;;;19.80;88.20;;;;;;4976384;28;19926;-76
2022/11/21 10:22:24;;;;;;;;;;;19.80;88.20;;;;;;4976357;28;19941;-76
2022/11/21 10:24:55;;;;;;;;;;;19.80;88.10;;;;;;4976262;28;19933;-76
2022/11/21 10:27:26;;;;;;;;;;;19.80;88.10;;;;;;4976179;28;19926;-76
2022/11/21 10:29:55;;;;;;;;;;;19.80;88.00;;;;;;4975845;28;19930;-76
2022/11/21 10:32:24;;;;;;;;;;;19.80;88.00;;;;;;4975797;28;20381;-76
2022/11/21 10:34:51;;;;;;;;;;;19.80;87.90;;;;;;4975759;28;19973;-77
2022/11/21 10:37:26;;;;;;;;;;;19.80;87.80;;;;;;4975715;28;19926;-78
2022/11/21 10:39:54;;;;;;;;;;;19.80;87.80;;;;;;4975678;28;20327;-78
2022/11/21 10:42:28;;;;;;;;;;;19.80;87.80;;;;;;4975950;28;19933;-77
2022/11/21 10:47:39;;;;;;;;;;;19.80;87.70;;;;;;4975659;28;20421;-77
2022/11/21 10:50:14;;;;;;;;;;;19.80;87.70;;;;;;4975761;28;19926;-77
2022/11/21 10:52:44;;;;;;;;;;;19.80;87.60;;;;;;4975610;28;20305;-78
2022/11/21 10:55:11;;;;;;;;;;;19.80;87.60;;;;;;4975398;28;20309;-78
2022/11/21 10:57:40;;;;;;;;;;;19.80;87.50;;;;;;4975355;28;20298;-78
2022/11/21 11:00:14;;;;;;;;;;;19.80;87.50;;;;;;4976182;28;19933;-78
2022/11/21 11:02:41;;;;;;;;;;;19.80;88.10;;;;;;4975447;28;19981;-78
2022/11/21 11:05:18;;;;;;;;;;;19.80;87.40;;;;;;4975588;28;19926;-77
2022/11/21 11:07:58;;;;;;;;;;;19.80;87.30;;;;;;4975514;28;19949;-77
2022/11/21 11:10:25;;;;;;;;;;;19.80;87.30;;;;;;4975469;28;19932;-77
2022/11/21 11:15:38;;;;;;;;;;;19.80;87.20;;;;;;5000002;23;19934;-80
2022/11/21 11:18:05;;;;;;;;;;;19.80;87.10;;;;;;4979402;28;19968;-80
2022/11/21 11:20:34;;;;;;;;;;;19.80;87.10;;;;;;4980271;28;19926;-80
2022/11/21 11:23:14;;;;;;;;;;;19.80;87.10;;;;;;4979751;28;19930;-80
2022/11/21 11:25:45;;;;;;;;;;;19.80;87.00;;;;;;4980067;28;19926;-80
2022/11/21 11:28:12;;;;;;;;;;;19.80;86.90;;;;;;4980404;28;19926;-80
2022/11/21 11:30:39;;;;;;;;;;;19.80;86.90;;;;;;4980813;28;19933;-80
2022/11/21 11:33:27;;;;;;;;;;;19.80;86.90;;;;;;4980262;28;19933;-80
2022/11/21 11:35:54;;;;;;;;;;;19.80;86.90;;;;;;4980789;28;20386;-80
2022/11/21 11:38:24;;;;;;;;;;;19.80;86.90;;;;;;4981053;28;19930;-82
2022/11/21 11:40:50;;;;;;;;;;;19.80;86.90;;;;;;4980384;28;19930;-83
2022/11/21 11:49:15;;;;;;;;;;;19.80;87.00;;;;;;4976351;28;20024;-77
2022/11/21 11:51:44;;;;;;;;;;;19.80;87.20;;;;;;4978773;28;20410;-77
2022/11/21 11:54:16;;;;;;;;;;;19.90;87.50;;;;;;4978998;28;19930;-76
2022/11/21 11:56:43;;;;;;;;;;;19.90;88.20;;;;;;4978680;28;20271;-77
2022/11/21 11:59:13;;;;;;;;;;;20.00;89.20;;;;;;4978667;28;20389;-76
2022/11/21 12:01:42;;;;;;;;;;;20.10;90.10;;;;;;4978933;28;19930;-76
2022/11/21 12:04:12;;;;;;;;;;;20.10;90.40;;;;;;4978910;28;19977;-76
2022/11/21 12:06:41;;;;;;;;;;;20.20;90.60;;;;;;4978710;28;19935;-76
2022/11/21 12:09:15;;;;;;;;;;;20.30;91.40;;;;;;4978695;28;19926;-77
2022/11/21 12:12:07;;;;;;;;;;;20.40;91.50;;;;;;4978783;28;19926;-77
2022/11/21 12:17:28;;;;;;;;;;;20.50;92.50;;;;;;4978294;28;19929;-77
2022/11/21 12:19:57;;;;;;;;;;;20.50;93.10;;;;;;4978253;28;19926;-77
2022/11/21 12:22:24;;;;;;;;;;;20.50;93.20;;;;;;4978589;28;19932;-77
2022/11/21 12:24:52;;;;;;;;;;;20.50;93.60;;;;;;4978478;28;19930;-77
2022/11/21 12:27:26;;;;;;;;;;;20.60;93.90;;;;;;4977954;28;19934;-77
2022/11/21 12:30:00;;;;;;;;;;;20.60;94.20;;;;;;4978416;28;19926;-77
2022/11/21 12:32:33;;;;;;;;;;;20.60;94.40;;;;;;4978340;28;19941;-77
2022/11/21 12:35:08;;;;;;;;;;;20.60;94.70;;;;;;4978300;28;19933;-77
2022/11/21 12:37:39;;;;;;;;;;;20.60;94.90;;;;;;4978438;28;19934;-77
2022/11/21 12:40:24;;;;;;;;;;;20.60;95.10;;;;;;4978241;28;19926;-77
2022/11/21 12:42:56;;;;;;;;;;;20.60;95.20;;;;;;4977823;28;20013;-76
2022/11/21 12:45:27;;;;;;;;;;;20.60;95.40;;;;;;4978025;28;19927;-76
2022/11/21 12:56:31;;;;;;;;;;;20.60;96.40;;;;;;4980488;28;19929;-82
2022/11/21 12:59:00;;;;;;;;;;;20.70;96.60;;;;;;4981091;28;19937;-84
2022/11/21 13:01:29;;;;;;;;;;;20.70;96.80;;;;;;4980789;28;19926;-84
2022/11/21 13:03:59;;;;;;;;;;;20.70;97.00;;;;;;4980950;28;19973;-81
2022/11/21 13:06:27;;;;;;;;;;;20.70;97.20;;;;;;4980675;28;20378;-81
2022/11/21 13:08:55;;;;;;;;;;;20.80;97.50;;;;;;4980265;28;19948;-81
2022/11/21 13:14:15;;;;;;;;;;;20.80;97.90;;;;;;4981825;28;19933;-80
2022/11/21 13:16:45;;;;;;;;;;;20.80;98.10;;;;;;4982048;28;19926;-80
2022/11/21 13:19:21;;;;;;;;;;;20.90;98.20;;;;;;4982262;28;19926;-80
2022/11/21 13:21:49;;;;;;;;;;;20.90;98.20;;;;;;4981982;28;19930;-79
2022/11/21 13:24:33;;;;;;;;;;;20.90;98.20;;;;;;4980962;28;19926;-79
2022/11/21 13:27:01;;;;;;;;;;;20.90;98.20;;;;;;4979675;28;19926;-77
2022/11/21 13:29:28;;;;;;;;;;;20.90;98.50;;;;;;4980475;28;19926;-80
2022/11/21 13:31:54;;;;;;;;;;;20.90;98.20;;;;;;4980660;28;19933;-80
2022/11/21 13:34:37;;;;;;;;;;;20.90;98.20;;;;;;4981938;28;19937;-80
2022/11/21 13:37:04;;;;;;;;;;;20.90;98.20;;;;;;4985300;28;19933;-78
2022/11/21 13:39:39;;;;;;;;;;;20.90;98.50;;;;;;4986087;28;20282;-79
2022/11/21 13:44:59;;;;;;;;;;;20.90;98.20;;;;;;4984023;28;20453;-79
2022/11/21 13:47:53;;;;;;;;;;;20.90;98.20;;;;;;4984564;28;19926;-81
2022/11/21 13:50:24;;;;;;;;;;;20.90;98.20;;;;;;4938619;28;19926;-81
2022/11/21 13:52:58;;;;;;;;;;;20.80;98.10;;;;;;4983668;28;19933;-77
2022/11/21 13:55:39;;;;;;;;;;;20.80;98.10;;;;;;4982603;28;19926;-78
2022/11/21 13:58:14;;;;;;;;;;;20.80;98.10;;;;;;4984860;28;19969;-78
2022/11/21 14:00:51;;;;;;;;;;;20.80;98.10;;;;;;4987359;28;19987;-77
2022/11/21 14:03:29;;;;;;;;;;;20.80;98.10;;;;;;4984495;28;19927;-78
2022/11/21 14:06:03;;;;;;;;;;;20.80;98.10;;;;;;4985017;28;19926;-77
2022/11/21 14:08:30;;;;;;;;;;;20.80;98.10;;;;;;4985085;28;19957;-78
2022/11/21 14:10:57;;;;;;;;;;;20.80;98.10;;;;;;4984607;28;19930;-78
2022/11/21 14:13:28;;;;;;;;;;;20.80;98.10;;;;;;4984711;28;19933;-79
2022/11/21 14:16:04;;;;;;;;;;;20.80;98.10;;;;;;4984707;28;19957;-79
2022/11/21 14:18:32;;;;;;;;;;;20.80;98.10;;;;;;4984630;28;19930;-80
2022/11/21 14:21:00;;;;;;;;;;;20.80;98.10;;;;;;4984605;28;19933;-81
2022/11/21 14:23:28;;;;;;;;;;;20.80;98.40;;;;;;4985683;28;19954;-82
2022/11/21 14:25:56;;;;;;;;;;;20.80;98.50;;;;;;4984839;28;19977;-82
2022/11/21 14:28:25;;;;;;;;;;;20.90;98.70;;;;;;4985180;28;19926;-79
2022/11/21 14:30:57;;;;;;;;;;;20.90;98.80;;;;;;4985727;28;19930;-79
2022/11/21 14:33:26;;;;;;;;;;;20.90;98.90;;;;;;4980084;28;19926;-78
2022/11/21 14:35:54;;;;;;;;;;;20.90;98.90;;;;;;4980927;28;19933;-78
2022/11/21 14:38:21;;;;;;;;;;;20.90;99.00;;;;;;4981387;28;19932;-80
2022/11/21 14:40:49;;;;;;;;;;;20.90;99.00;;;;;;4981386;28;19927;-81
2022/11/21 14:43:30;;;;;;;;;;;20.90;99.00;;;;;;4983391;28;20429;-80
2022/11/21 14:45:58;;;;;;;;;;;20.90;99.00;;;;;;4982349;28;19933;-79
2022/11/21 14:48:26;;;;;;;;;;;20.90;98.90;;;;;;4983433;28;20028;-78
2022/11/21 14:50:53;;;;;;;;;;;20.90;98.90;;;;;;4981918;28;20297;-81
2022/11/21 14:53:20;;;;;;;;;;;20.90;98.90;;;;;;4984003;28;19933;-80
2022/11/21 14:55:50;;;;;;;;;;;20.90;98.90;;;;;;4984158;28;19926;-79
2022/11/21 14:58:17;;;;;;;;;;;20.90;98.80;;;;;;4984352;28;20410;-80
2022/11/21 15:01:02;;;;;;;;;;;20.90;98.80;;;;;;4984424;28;20370;-78
2022/11/21 15:03:31;;;;;;;;;;;20.80;98.70;;;;;;4984444;28;19977;-78
2022/11/21 15:05:59;;;;;;;;;;;20.80;98.60;;;;;;4984166;28;19926;-78
2022/11/21 15:08:26;;;;;;;;;;;20.80;98.60;;;;;;4984237;28;20344;-79
2022/11/21 15:10:53;;;;;;;;;;;20.80;98.60;;;;;;4983369;28;19926;-78
2022/11/21 15:13:24;;;;;;;;;;;20.80;98.50;;;;;;4983355;28;19926;-81
2022/11/21 15:15:53;;;;;;;;;;;20.80;98.50;;;;;;4985210;28;19994;-80
2022/11/21 15:18:22;;;;;;;;;;;20.80;98.50;;;;;;4983956;28;19930;-80
2022/11/21 15:20:51;;;;;;;;;;;20.70;98.50;;;;;;4981880;28;19926;-82
2022/11/21 15:23:25;;;;;;;;;;;20.80;98.60;;;;;;4978274;28;20369;-82
2022/11/21 15:25:52;;;;;;;;;;;20.80;98.70;;;;;;4978459;28;19930;-83
2022/11/21 15:28:18;;;;;;;;;;;20.80;98.80;;;;;;4978298;28;20398;-81
2022/11/21 15:30:45;;;;;;;;;;;20.80;98.80;;;;;;4977703;28;19926;-80
2022/11/21 15:33:13;;;;;;;;;;;20.80;98.90;;;;;;4977673;28;19931;-79
2022/11/21 15:35:52;;;;;;;;;;;20.80;99.00;;;;;;4977494;28;19933;-79
2022/11/21 15:38:26;;;;;;;;;;;20.80;99.00;;;;;;4977945;28;19980;-79
2022/11/21 15:41:09;;;;;;;;;;;20.80;99.00;;;;;;4978262;28;19930;-79
2022/11/21 15:43:37;;;;;;;;;;;20.80;99.00;;;;;;4977784;28;19926;-79
2022/11/21 15:46:04;;;;;;;;;;;20.90;99.10;;;;;;4977327;28;19926;-79
2022/11/21 15:48:31;;;;;;;;;;;20.80;99.00;;;;;;4977156;28;19926;-79
2022/11/21 15:50:59;;;;;;;;;;;20.80;99.00;;;;;;4977119;28;19926;-79
2022/11/21 15:53:26;;;;;;;;;;;20.80;99.00;;;;;;4977186;28;20297;-79
2022/11/21 15:55:53;;;;;;;;;;;20.80;99.00;;;;;;4976616;28;19926;-79
2022/11/21 15:58:19;;;;;;;;;;;20.80;99.00;;;;;;4975821;28;19932;-79
2022/11/21 16:00:46;;;;;;;;;;;20.80;98.90;;;;;;4976167;28;19933;-78
2022/11/21 16:03:13;;;;;;;;;;;20.80;98.90;;;;;;4976535;28;20014;-78
2022/11/21 16:05:40;;;;;;;;;;;20.80;98.80;;;;;;4976211;28;19932;-78
2022/11/21 16:08:08;;;;;;;;;;;20.80;98.80;;;;;;4976394;28;19932;-79
2022/11/21 16:10:35;;;;;;;;;;;20.80;98.70;;;;;;4976563;28;19927;-78
2022/11/21 16:13:02;;;;;;;;;;;20.80;98.70;;;;;;4976758;28;19930;-77
2022/11/21 16:15:29;;;;;;;;;;;20.80;98.70;;;;;;4975481;28;19930;-78
2022/11/21 16:17:55;;;;;;;;;;;20.80;98.60;;;;;;4975776;28;20394;-79
2022/11/21 16:20:22;;;;;;;;;;;20.80;98.60;;;;;;4977197;28;20301;-76
2022/11/21 16:22:48;;;;;;;;;;;20.80;98.60;;;;;;4978470;28;19934;-76
2022/11/21 16:25:17;;;;;;;;;;;20.80;98.60;;;;;;4978589;28;19926;-79
2022/11/21 16:27:43;;;;;;;;;;;20.70;98.60;;;;;;4978339;28;19926;-75
2022/11/21 16:30:11;;;;;;;;;;;20.70;98.60;;;;;;4975635;28;19930;-75
2022/11/21 16:32:38;;;;;;;;;;;20.70;98.70;;;;;;4977267;28;19926;-79
2022/11/21 16:35:05;;;;;;;;;;;20.80;98.90;;;;;;4977542;28;19926;-79
2022/11/21 16:37:32;;;;;;;;;;;20.80;99.00;;;;;;4980112;28;20001;-79
2022/11/21 16:39:59;;;;;;;;;;;20.80;99.10;;;;;;4980376;28;19930;-80
2022/11/21 16:42:27;;;;;;;;;;;20.80;99.10;;;;;;4980283;28;19934;-80
2022/11/21 16:44:53;;;;;;;;;;;20.80;99.20;;;;;;4980975;28;19933;-80
2022/11/21 16:47:20;;;;;;;;;;;21.40;99.50;;;;;;4979316;28;20016;-77
2022/11/21 16:49:47;;;;;;;;;;;20.80;99.30;;;;;;4979944;28;19954;-77
2022/11/21 16:52:14;;;;;;;;;;;20.80;99.30;;;;;;4980915;28;19935;-81
2022/11/21 16:54:41;;;;;;;;;;;20.80;99.30;;;;;;4978956;28;19926;-78
2022/11/21 16:57:07;;;;;;;;;;;20.90;99.40;;;;;;4978434;28;19926;-78
2022/11/21 16:59:35;;;;;;;;;;;20.80;99.30;;;;;;4978812;28;19934;-78
2022/11/21 17:02:02;;;;;;;;;;;20.80;99.30;;;;;;4978545;28;19941;-78
2022/11/21 17:04:28;;;;;;;;;;;20.80;99.30;;;;;;4977965;28;20405;-78
2022/11/21 17:06:55;;;;;;;;;;;20.80;99.20;;;;;;4978354;28;20289;-78
2022/11/21 17:09:21;;;;;;;;;;;20.80;99.20;;;;;;4978218;28;19926;-78
2022/11/21 17:11:48;;;;;;;;;;;20.80;99.20;;;;;;4978137;28;19926;-78
2022/11/21 17:14:14;;;;;;;;;;;20.80;99.20;;;;;;4978254;28;19926;-78
2022/11/21 17:16:42;;;;;;;;;;;20.80;99.20;;;;;;4978061;28;19926;-78
2022/11/21 17:19:10;;;;;;;;;;;20.80;99.20;;;;;;4977692;28;20279;-78
2022/11/21 17:21:37;;;;;;;;;;;20.80;99.20;;;;;;4978174;28;19926;-78
2022/11/21 17:24:03;;;;;;;;;;;20.80;99.20;;;;;;4977534;28;19933;-78
2022/11/21 17:26:30;;;;;;;;;;;20.80;99.20;;;;;;4978235;28;19926;-78
2022/11/21 17:28:57;;;;;;;;;;;20.80;99.20;;;;;;4977986;28;19977;-78
2022/11/21 17:31:24;;;;;;;;;;;20.80;99.20;;;;;;4977518;28;20386;-79
2022/11/21 17:33:53;;;;;;;;;;;20.80;99.20;;;;;;4977699;28;19930;-79
2022/11/21 17:36:21;;;;;;;;;;;21.20;99.50;;;;;;4978054;28;19930;-78
2022/11/21 17:38:47;;;;;;;;;;;20.70;99.30;;;;;;4977689;28;19926;-78
2022/11/21 17:41:15;;;;;;;;;;;20.80;99.40;;;;;;4977456;28;19926;-75
2022/11/21 17:43:42;;;;;;;;;;;20.80;99.40;;;;;;4978639;28;19977;-80
2022/11/21 17:46:11;;;;;;;;;;;20.70;99.40;;;;;;4979160;28;19937;-80
2022/11/21 17:48:38;;;;;;;;;;;20.80;99.40;;;;;;4978486;28;20016;-79
2022/11/21 17:51:08;;;;;;;;;;;20.80;99.30;;;;;;4979298;28;19927;-81
2022/11/21 17:53:35;;;;;;;;;;;20.80;99.40;;;;;;4980626;28;20380;-77
2022/11/21 17:56:02;;;;;;;;;;;20.80;99.40;;;;;;4977573;28;20397;-79
2022/11/21 17:58:29;;;;;;;;;;;20.80;99.40;;;;;;4978172;28;19933;-79
2022/11/21 18:00:56;;;;;;;;;;;20.80;99.40;;;;;;4977869;28;20018;-80
2022/11/21 18:03:23;;;;;;;;;;;20.80;99.40;;;;;;4978047;28;19930;-79
2022/11/21 18:05:58;;;;;;;;;;;20.80;99.50;;;;;;4977473;28;19926;-80
2022/11/21 18:08:26;;;;;;;;;;;20.70;99.50;;;;;;4978593;28;19926;-80
2022/11/21 18:10:53;;;;;;;;;;;20.80;99.60;;;;;;4977961;28;19937;-79
2022/11/21 18:13:19;;;;;;;;;;;20.80;99.70;;;;;;4978424;28;19934;-79
2022/11/21 18:15:46;;;;;;;;;;;20.80;99.70;;;;;;4977543;28;19933;-79
2022/11/21 18:18:13;;;;;;;;;;;20.80;99.80;;;;;;4977961;28;19930;-78
2022/11/21 18:20:39;;;;;;;;;;;20.80;99.90;;;;;;4976086;28;20404;-78
2022/11/21 18:23:07;;;;;;;;;;;20.80;99.90;;;;;;4977117;28;19941;-78
2022/11/21 18:25:35;;;;;;;;;;;20.80;99.90;;;;;;4976382;28;20309;-79
2022/11/21 18:28:02;;;;;;;;;;;20.90;99.90;;;;;;4976448;28;19926;-78
2022/11/21 18:30:29;;;;;;;;;;;20.90;99.90;;;;;;4976973;28;19927;-79
2022/11/21 18:32:56;;;;;;;;;;;20.90;99.90;;;;;;4976620;28;20305;-79
2022/11/21 18:35:22;;;;;;;;;;;20.90;99.90;;;;;;4977121;28;19937;-79
2022/11/21 18:37:49;;;;;;;;;;;20.90;99.90;;;;;;4976758;28;19933;-78
2022/11/21 18:40:15;;;;;;;;;;;20.90;99.90;;;;;;4976998;28;19926;-79
2022/11/21 18:42:43;;;;;;;;;;;20.90;99.90;;;;;;4976745;28;19926;-79
2022/11/21 18:45:10;;;;;;;;;;;20.90;99.90;;;;;;4977296;28;19933;-79
2022/11/21 18:47:36;;;;;;;;;;;20.90;99.90;;;;;;4975779;28;19926;-78
2022/11/21 18:50:03;;;;;;;;;;;20.90;99.90;;;;;;4975473;28;20298;-77
2022/11/21 18:52:32;;;;;;;;;;;20.90;99.90;;;;;;4975818;28;19926;-77
2022/11/21 18:54:59;;;;;;;;;;;20.90;99.90;;;;;;4975444;28;20314;-77
2022/11/21 18:57:25;;;;;;;;;;;20.90;99.90;;;;;;4975096;28;20408;-78
2022/11/21 18:59:53;;;;;;;;;;;20.90;99.90;;;;;;4975598;28;19926;-78
2022/11/21 19:02:20;;;;;;;;;;;20.80;99.90;;;;;;4975669;28;19926;-78
2022/11/21 19:04:46;;;;;;;;;;;20.80;99.90;;;;;;4975679;28;19926;-78
2022/11/21 19:07:13;;;;;;;;;;;20.80;99.90;;;;;;4975696;28;19937;-78
2022/11/21 19:09:40;;;;;;;;;;;20.80;99.90;;;;;;4975319;28;20394;-77
2022/11/21 19:12:07;;;;;;;;;;;20.80;99.90;;;;;;4975527;28;19926;-78
2022/11/21 19:14:33;;;;;;;;;;;20.80;99.90;;;;;;4975439;28;20386;-78
2022/11/21 19:17:01;;;;;;;;;;;20.80;99.90;;;;;;4974938;28;20297;-78
2022/11/21 19:19:28;;;;;;;;;;;20.80;99.90;;;;;;4975525;28;19934;-78
2022/11/21 19:21:54;;;;;;;;;;;20.80;99.90;;;;;;4975532;28;20416;-78
2022/11/21 19:24:21;;;;;;;;;;;20.80;99.90;;;;;;4975643;28;19926;-79
2022/11/21 19:26:49;;;;;;;;;;;20.80;99.90;;;;;;4975361;28;19933;-78
2022/11/21 19:29:15;;;;;;;;;;;20.80;99.90;;;;;;4975226;28;20378;-76
2022/11/21 19:31:42;;;;;;;;;;;20.80;99.90;;;;;;4974965;28;20325;-77
2022/11/21 19:34:10;;;;;;;;;;;20.80;99.90;;;;;;4975260;28;19926;-77
2022/11/21 19:36:38;;;;;;;;;;;20.80;99.90;;;;;;4975177;28;19933;-77
2022/11/21 19:39:04;;;;;;;;;;;20.70;99.90;;;;;;4975195;28;19926;-77
2022/11/21 19:41:31;;;;;;;;;;;20.70;99.90;;;;;;4975197;28;19934;-77
2022/11/21 19:43:58;;;;;;;;;;;20.70;99.90;;;;;;4975219;28;19933;-77
2022/11/21 19:46:26;;;;;;;;;;;20.80;99.90;;;;;;4974784;28;19926;-77
2022/11/21 19:48:54;;;;;;;;;;;20.80;99.90;;;;;;4974187;28;20131;-77
2022/11/21 19:51:23;;;;;;;;;;;20.80;99.90;;;;;;4974999;28;19926;-78
2022/11/21 19:53:50;;;;;;;;;;;20.80;99.90;;;;;;4974786;28;20017;-78
2022/11/21 19:56:17;;;;;;;;;;;20.80;99.90;;;;;;4974972;28;20294;-77
2022/11/21 19:58:44;;;;;;;;;;;20.80;99.90;;;;;;4975077;28;19926;-78
2022/11/21 20:01:12;;;;;;;;;;;20.80;99.90;;;;;;4974722;28;20486;-78
2022/11/21 20:03:40;;;;;;;;;;;20.80;99.90;;;;;;4975024;28;19927;-78
2022/11/21 20:06:07;;;;;;;;;;;20.70;99.90;;;;;;4974939;28;19933;-79
2022/11/21 20:11:10;;;;;;;;;;;20.70;99.90;;;;;;5032223;23;19930;-78